Southwest Georgia Regional Airport
KABY : now visible

Airfield :











YOU CAN JOIN US ON...

 
LOGIN :

Register | Disclaimer

   EN    FR    IT 

 









Legend :    VFR   Marginal VFR   IFR   Intensive IFR   Very Intensive IFR
Visi :
Ceiling :
>= 8 km
>= 3000ft
5 to 8 km
1000 to 3000 ft
1500m to 5 km
500 to 1000 ft
800 to 1500m
200 to 500 ft
< 800m
< 200 ft
Symbols :   Thunderstorms  Fog  Heavy snow  Heavy precipitations  Wind > 20 kt






- Airport Elevation : 197 ft
- IATA code : ABY


KABY - Southwest Georgia Regional

CURRENT METAR :
  • 221353Z 06007KT 10SM BKN006 22/21 A3016 RMK AO2 SLP211 T02220206

EXPIRED METARs :
  • 221255Z 04005KT 8SM BKN006 BKN048 22/21 A3014 RMK AO2 T02220206
  • 221153Z 05007KT 7SM OVC005 21/20 A3013 RMK AO2 SLP202 T02060200 10211 20200 52012

TAF KABY
Valid from the 22 at 14:00 until the 23 at 12:00 UTC


221358Z 2214/2312 06005KT P6SM BKN006
FM221530 08008KT P6SM SCT050
FM221800 08008KT P6SM VCSH BKN050
FM230000 09005KT P6SM SCT250
FM230900 08004KT P6SM OVC007
KZJX FIR / North America



MET'MAP, your aeronautical weather chart ! - Copyright ORBIFLY December 2007 - Disclaimer

ORBIFLY MET'MAP TEAM :

Programming & Development : Alexandra Zaïnal
Concept & original design : Baudouin d'Aumeries
Assistance for programming : Marc-Olivier Méhu
Technical & hardware support : Manuel Goepfert

Contact : metmap@orbifly.com




SOURCES & CREDITS :

   NOAA       Earth
Advisory